createdAt,value
2019-01-16T00:01:06.034Z,98751.73
2019-01-16T00:03:46.371Z,98762.69
2019-01-16T00:06:53.805Z,98756.39
2019-01-16T00:09:34.196Z,98752.95
2019-01-16T00:12:10.999Z,98719.48
2019-01-16T00:14:50.327Z,98755.53
2019-01-16T00:19:26.490Z,98746.39
2019-01-16T00:22:06.848Z,98758.56
2019-01-16T00:24:51.919Z,98749.79
2019-01-16T00:27:43.513Z,98728.00
2019-01-16T00:31:17.615Z,98763.52
2019-01-16T00:33:51.155Z,98761.36
2019-01-16T00:36:25.263Z,98743.97
2019-01-16T00:41:04.904Z,98769.50
2019-01-16T00:44:10.561Z,98772.27
2019-01-16T00:46:44.776Z,98772.66
2019-01-16T00:51:25.265Z,98772.50
2019-01-16T00:54:06.640Z,98788.61
2019-01-16T00:57:15.171Z,98788.01
2019-01-16T00:59:48.527Z,98785.08
2019-01-16T01:04:23.490Z,98783.87
2019-01-16T01:06:58.459Z,98786.91
2019-01-16T01:09:32.650Z,98786.98
2019-01-16T01:12:06.010Z,98787.38
2019-01-16T01:14:50.274Z,98799.20
2019-01-16T01:19:29.181Z,98794.80
2019-01-16T01:22:06.451Z,98796.95
2019-01-16T01:24:42.195Z,98792.28
2019-01-16T01:27:19.292Z,98789.28
2019-01-16T01:29:53.289Z,98788.14
2019-01-16T01:32:26.746Z,98789.98
2019-01-16T01:35:02.270Z,98786.89
2019-01-16T01:37:35.972Z,98776.59
2019-01-16T01:40:11.294Z,98767.63
2019-01-16T01:42:47.707Z,98767.58
2019-01-16T01:45:55.319Z,98751.02
2019-01-16T01:48:58.935Z,98762.77
2019-01-16T01:51:35.023Z,98762.13
2019-01-16T01:56:12.892Z,98759.16
2019-01-16T01:58:51.379Z,98758.91
2019-01-16T02:01:26.598Z,98759.31
2019-01-16T02:04:00.040Z,98763.52
2019-01-16T02:06:35.642Z,98707.23
2019-01-16T02:09:40.557Z,98771.83
2019-01-16T02:12:24.432Z,98775.97
2019-01-16T02:15:03.014Z,98783.23
2019-01-16T02:17:36.159Z,98781.11
2019-01-16T02:20:13.664Z,98782.03
2019-01-16T02:22:48.447Z,98768.69
2019-01-16T02:25:26.883Z,98774.44
2019-01-16T02:28:00.919Z,98771.91
2019-01-16T02:30:34.443Z,98773.69
2019-01-16T02:33:07.830Z,98753.38
2019-01-16T02:35:41.909Z,98761.87
2019-01-16T02:38:17.408Z,98763.31
2019-01-16T02:40:50.869Z,98752.88
2019-01-16T02:43:24.805Z,98717.51
2019-01-16T02:45:58.458Z,98743.06
2019-01-16T02:48:39.057Z,98747.52
2019-01-16T02:51:12.455Z,98739.30
2019-01-16T02:53:46.187Z,98742.88
2019-01-16T02:56:20.512Z,98746.55
2019-01-16T02:58:54.122Z,98740.95
2019-01-16T03:02:25.193Z,98738.47
2019-01-16T03:05:06.890Z,98734.71
2019-01-16T03:07:40.912Z,98726.95
2019-01-16T03:10:21.481Z,98732.69
2019-01-16T03:12:54.837Z,98728.47
2019-01-16T03:15:37.432Z,98731.08
2019-01-16T03:18:13.733Z,98730.70
2019-01-16T03:20:47.763Z,98717.05
2019-01-16T03:23:31.252Z,98727.16
2019-01-16T03:26:04.899Z,98727.80
2019-01-16T03:28:38.565Z,98734.70
2019-01-16T03:31:12.033Z,98728.27
2019-01-16T03:34:16.969Z,98702.84
2019-01-16T03:36:50.370Z,98703.17
2019-01-16T03:39:31.106Z,98725.84
2019-01-16T03:42:06.991Z,98732.67
2019-01-16T03:44:42.890Z,98727.09
2019-01-16T03:47:18.788Z,98724.27
2019-01-16T03:49:52.114Z,98730.25
2019-01-16T03:52:29.198Z,98708.97
2019-01-16T03:55:04.809Z,98722.68
2019-01-16T03:57:38.944Z,98698.88
2019-01-16T04:00:48.319Z,98717.23
2019-01-16T04:03:22.493Z,98717.45
2019-01-16T04:06:02.085Z,98537.61
2019-01-16T04:08:39.435Z,98715.62
2019-01-16T04:11:18.939Z,98700.51
2019-01-16T04:15:54.289Z,98703.05
2019-01-16T04:18:32.049Z,98708.88
2019-01-16T04:21:07.502Z,98712.63
2019-01-16T04:23:46.219Z,98706.02
2019-01-16T04:26:21.562Z,98712.78
2019-01-16T04:30:02.613Z,98700.89
2019-01-16T04:32:38.036Z,98702.59
2019-01-16T04:35:14.825Z,98687.80
2019-01-16T04:39:51.929Z,98562.72
2019-01-16T04:44:28.570Z,98705.53
2019-01-16T04:47:06.531Z,98537.75
2019-01-16T04:50:15.126Z,98696.16
2019-01-16T04:52:49.300Z,98689.11
2019-01-16T04:55:23.753Z,98682.81
2019-01-16T04:58:55.538Z,98628.09
2019-01-16T05:02:05.791Z,98667.48
2019-01-16T05:04:54.561Z,98691.76
2019-01-16T05:11:15.298Z,98680.66
2019-01-16T05:13:49.015Z,98528.83
2019-01-16T05:16:22.535Z,98674.39
2019-01-16T05:18:56.086Z,98666.71
2019-01-16T05:21:30.849Z,98507.19
2019-01-16T05:24:07.686Z,98665.33
2019-01-16T05:26:44.039Z,98669.30
2019-01-16T05:31:23.876Z,98497.36
2019-01-16T05:34:00.490Z,98467.53
2019-01-16T05:36:36.723Z,98663.41
2019-01-16T05:41:15.011Z,98652.27
2019-01-16T05:44:46.227Z,98656.59
2019-01-16T05:48:17.262Z,98659.02
2019-01-16T05:50:51.156Z,98659.02
2019-01-16T05:53:29.533Z,98662.70
2019-01-16T05:56:06.365Z,98670.13
2019-01-16T05:59:44.977Z,98637.35
2019-01-16T06:02:18.437Z,98672.50
2019-01-16T06:04:53.189Z,98636.18
2019-01-16T06:07:58.394Z,98671.12
2019-01-16T06:10:37.713Z,98669.20
2019-01-16T06:14:16.990Z,98615.05
2019-01-16T06:16:50.304Z,98652.46
2019-01-16T06:19:25.918Z,98645.64
2019-01-16T06:22:14.630Z,98678.88
2019-01-16T06:25:18.725Z,98657.57
2019-01-16T06:29:54.450Z,98653.65
2019-01-16T06:32:26.709Z,98658.17
2019-01-16T06:35:06.827Z,98656.26
2019-01-16T06:37:40.154Z,98656.69
2019-01-16T06:40:15.028Z,98651.56
2019-01-16T06:42:49.131Z,98647.03
2019-01-16T06:45:28.681Z,98587.91
2019-01-16T06:48:10.381Z,98644.37
2019-01-16T06:50:42.706Z,98643.35
2019-01-16T06:53:30.692Z,98641.61
2019-01-16T06:56:04.648Z,98638.61
2019-01-16T07:00:39.312Z,98639.00
2019-01-16T07:03:31.062Z,98641.83
2019-01-16T07:06:10.878Z,98625.92
2019-01-16T07:08:44.741Z,98637.97
2019-01-16T07:12:26.990Z,98692.09
2019-01-16T07:17:02.686Z,98645.96
2019-01-16T07:19:36.056Z,98646.67
2019-01-16T07:22:40.993Z,98642.67
2019-01-16T07:25:14.839Z,98379.47
2019-01-16T07:28:53.181Z,98642.82
2019-01-16T07:33:30.321Z,98646.89
2019-01-16T07:36:06.004Z,98595.60
2019-01-16T07:38:39.345Z,98644.00
2019-01-16T07:43:17.726Z,98646.37
2019-01-16T07:45:51.445Z,98597.70
2019-01-16T07:48:28.267Z,98626.45
2019-01-16T07:51:02.673Z,98605.74
2019-01-16T07:53:36.578Z,98635.19
2019-01-16T07:58:12.155Z,98409.20
2019-01-16T08:00:46.014Z,98626.55
2019-01-16T08:03:19.510Z,98628.47
2019-01-16T08:05:52.764Z,98626.23
2019-01-16T08:10:28.967Z,98630.48
2019-01-16T08:14:06.239Z,98628.40
2019-01-16T08:16:39.439Z,98628.50
2019-01-16T08:19:18.991Z,98631.02
2019-01-16T08:23:55.009Z,98641.14
2019-01-16T08:26:28.392Z,98639.43
2019-01-16T08:29:17.001Z,98648.00
2019-01-16T08:31:52.636Z,98651.47
2019-01-16T08:35:25.066Z,98654.30
2019-01-16T08:38:00.361Z,98655.18
2019-01-16T08:40:34.697Z,98661.55
2019-01-16T08:43:11.966Z,98656.95
2019-01-16T08:47:48.924Z,98660.84
2019-01-16T08:50:32.435Z,98654.96
2019-01-16T08:53:05.189Z,98663.10
2019-01-16T08:55:42.705Z,98658.25
2019-01-16T08:58:47.694Z,98651.66
2019-01-16T09:01:23.872Z,98654.13
2019-01-16T09:04:29.565Z,98657.04
2019-01-16T09:07:04.840Z,98650.20
2019-01-16T09:10:44.492Z,98649.06
2019-01-16T09:13:18.692Z,98647.68
2019-01-16T09:15:52.596Z,98646.08
2019-01-16T09:18:56.445Z,98647.31
2019-01-16T09:21:34.253Z,98648.98
2019-01-16T09:24:24.070Z,98645.67
2019-01-16T09:27:07.098Z,98601.48
2019-01-16T09:29:44.249Z,98641.84
2019-01-16T09:32:17.225Z,98637.02
2019-01-16T09:34:50.561Z,98636.56
2019-01-16T09:37:26.732Z,98641.23
2019-01-16T09:41:03.389Z,98638.41
2019-01-16T09:43:37.560Z,98637.93
2019-01-16T09:46:17.865Z,98634.88
2019-01-16T09:48:52.513Z,98628.42
2019-01-16T09:51:26.325Z,98627.41
2019-01-16T09:54:00.585Z,98630.94
2019-01-16T09:56:34.723Z,98594.35
2019-01-16T09:59:22.298Z,98616.97
2019-01-16T10:02:10.698Z,98620.25
2019-01-16T10:05:00.645Z,98542.94
2019-01-16T10:07:38.582Z,98606.06
2019-01-16T10:10:14.570Z,98614.74
2019-01-16T10:12:48.026Z,98597.24
2019-01-16T10:17:27.180Z,98546.00
2019-01-16T10:21:05.682Z,98577.30
2019-01-16T10:23:40.745Z,98583.64
2019-01-16T10:26:14.209Z,98600.05
2019-01-16T10:28:49.784Z,98600.59
2019-01-16T10:32:25.341Z,98620.97
2019-01-16T10:37:04.165Z,98586.03
2019-01-16T10:39:37.219Z,98581.49
2019-01-16T10:42:10.739Z,98574.34
2019-01-16T10:44:45.491Z,98575.97
2019-01-16T10:48:25.062Z,98566.13
2019-01-16T10:51:03.150Z,98566.67
2019-01-16T10:53:35.919Z,98559.09
2019-01-16T10:56:16.628Z,98559.32
2019-01-16T10:59:53.025Z,98548.55
2019-01-16T11:02:26.144Z,98550.70
2019-01-16T11:04:59.457Z,98543.88
2019-01-16T11:07:33.901Z,98401.79
2019-01-16T11:10:08.095Z,98542.89
2019-01-16T11:12:42.386Z,98540.04
2019-01-16T11:16:19.159Z,98532.75
2019-01-16T11:18:52.503Z,98532.39
2019-01-16T11:21:56.073Z,98528.24
2019-01-16T11:24:47.711Z,98529.01
2019-01-16T11:27:27.339Z,98527.09
2019-01-16T11:30:15.442Z,98521.57
2019-01-16T11:32:51.255Z,98507.85
2019-01-16T11:35:27.990Z,98505.92
2019-01-16T11:38:01.944Z,98499.30
2019-01-16T11:40:40.529Z,98496.39
2019-01-16T11:43:14.490Z,98484.66
2019-01-16T11:45:49.184Z,98500.69
2019-01-16T11:48:22.429Z,98497.84
2019-01-16T11:50:55.953Z,98493.67
2019-01-16T11:53:32.257Z,98481.01
2019-01-16T11:56:04.916Z,98479.19
2019-01-16T11:58:38.079Z,98448.46
2019-01-16T12:02:16.195Z,98475.42
2019-01-16T12:06:51.627Z,98477.58
2019-01-16T12:09:56.636Z,98475.73
2019-01-16T12:13:01.118Z,98501.31
2019-01-16T12:15:33.860Z,98454.15
2019-01-16T12:18:10.078Z,98451.14
2019-01-16T12:20:47.474Z,98435.58
2019-01-16T12:23:27.159Z,98430.73
2019-01-16T12:26:08.062Z,98435.66
2019-01-16T12:28:38.116Z,98434.28
2019-01-16T12:31:16.872Z,98439.39
2019-01-16T12:33:50.780Z,98426.59
2019-01-16T12:36:42.422Z,98421.84
2019-01-16T12:39:51.039Z,98411.48
2019-01-16T12:42:27.988Z,98404.73
2019-01-16T12:45:05.976Z,98367.27
2019-01-16T12:49:40.985Z,98392.98
2019-01-16T12:55:28.915Z,98380.45
2019-01-16T12:58:02.384Z,98349.17
2019-01-16T13:00:41.047Z,98379.01
2019-01-16T13:03:14.453Z,98312.19
2019-01-16T13:05:48.209Z,98372.34
2019-01-16T13:08:29.773Z,98365.91
2019-01-16T13:11:36.688Z,98360.45
2019-01-16T13:14:10.827Z,98357.29
2019-01-16T13:16:47.672Z,98351.92
2019-01-16T13:19:27.791Z,98329.25
2019-01-16T13:22:04.422Z,98341.62
2019-01-16T13:24:39.810Z,98337.34
2019-01-16T13:27:13.461Z,98338.28
2019-01-16T13:30:04.629Z,98327.14
2019-01-16T13:34:43.476Z,98333.78
2019-01-16T13:37:34.728Z,98335.44
2019-01-16T13:40:08.456Z,98331.29
2019-01-16T13:44:47.097Z,98323.47
2019-01-16T13:47:20.278Z,98332.20
2019-01-16T13:50:12.638Z,98283.72
2019-01-16T13:53:20.406Z,98323.00
2019-01-16T13:55:53.991Z,98325.03
2019-01-16T13:58:27.828Z,98305.46
2019-01-16T14:01:07.659Z,98318.55
2019-01-16T14:04:12.496Z,98313.80
2019-01-16T14:06:45.615Z,98306.31
2019-01-16T14:09:20.861Z,98299.72
2019-01-16T14:11:55.106Z,98262.73
2019-01-16T14:15:36.087Z,98301.41
2019-01-16T14:18:11.766Z,98268.14
2019-01-16T14:20:46.089Z,98289.47
2019-01-16T14:23:20.740Z,98284.50
2019-01-16T14:27:02.167Z,98280.84
2019-01-16T14:29:35.567Z,98275.01
2019-01-16T14:32:09.483Z,98235.90
2019-01-16T14:35:17.442Z,98286.78
2019-01-16T14:39:55.147Z,98284.76
2019-01-16T14:42:30.833Z,98281.25
2019-01-16T14:46:07.529Z,98287.30
2019-01-16T14:48:44.250Z,98276.81
2019-01-16T14:52:17.785Z,98276.28
2019-01-16T14:54:52.037Z,98270.16
2019-01-16T14:57:25.358Z,98272.48
2019-01-16T14:59:59.530Z,98282.83
2019-01-16T15:02:34.940Z,98264.91
2019-01-16T15:07:13.792Z,98258.13
2019-01-16T15:11:48.144Z,98253.13
2019-01-16T15:14:22.887Z,98238.19
2019-01-16T15:17:02.360Z,98229.16
2019-01-16T15:19:35.604Z,98163.72
2019-01-16T15:24:14.998Z,98195.31
2019-01-16T15:26:48.983Z,98235.90
2019-01-16T15:29:29.481Z,98248.26
2019-01-16T15:34:07.032Z,98245.73
2019-01-16T15:38:45.696Z,98241.59
2019-01-16T15:41:37.746Z,98229.73
2019-01-16T15:44:12.405Z,98223.47
2019-01-16T15:48:47.807Z,98215.68
2019-01-16T15:51:22.929Z,98226.27
2019-01-16T15:54:00.728Z,98222.42
2019-01-16T15:56:39.874Z,98217.83
2019-01-16T15:59:13.549Z,98217.52
2019-01-16T16:01:51.618Z,98151.81
2019-01-16T16:04:29.283Z,98199.69
2019-01-16T16:07:03.127Z,98196.09
2019-01-16T16:09:36.736Z,98184.45
2019-01-16T16:13:15.894Z,98177.97
2019-01-16T16:15:52.818Z,98162.38
2019-01-16T16:18:30.942Z,98156.02
2019-01-16T16:21:06.219Z,98104.65
2019-01-16T16:23:46.736Z,98155.33
2019-01-16T16:26:22.566Z,97920.63
2019-01-16T16:28:59.498Z,98114.36
2019-01-16T16:31:37.788Z,98143.56
2019-01-16T16:34:12.008Z,98134.39
2019-01-16T16:36:47.318Z,98134.99
2019-01-16T16:39:22.778Z,98137.44
2019-01-16T16:41:57.426Z,98126.89
2019-01-16T16:46:33.002Z,98121.98
2019-01-16T16:49:08.965Z,98121.45
2019-01-16T16:52:02.624Z,98100.41
2019-01-16T16:54:36.998Z,98100.80
2019-01-16T17:01:50.738Z,98110.82
2019-01-16T17:07:42.343Z,98083.52
2019-01-16T17:10:16.588Z,98090.10
2019-01-16T17:13:52.966Z,98080.16
2019-01-16T17:16:27.552Z,98099.29
2019-01-16T17:19:02.437Z,98085.52
2019-01-16T17:21:35.963Z,98044.70
2019-01-16T17:24:14.330Z,98075.88
2019-01-16T17:26:47.958Z,98066.84
2019-01-16T17:31:24.547Z,98049.56
2019-01-16T17:34:00.874Z,98052.02
2019-01-16T17:36:53.888Z,98057.84
2019-01-16T17:39:39.490Z,98057.01
2019-01-16T17:42:18.257Z,98078.66
2019-01-16T17:44:53.547Z,98045.25
2019-01-16T17:49:30.627Z,97899.95
2019-01-16T17:52:08.323Z,97929.03
2019-01-16T17:55:01.079Z,97819.25
2019-01-16T17:59:38.309Z,98041.50
2019-01-16T18:02:15.589Z,98044.34
2019-01-16T18:04:51.792Z,98041.41
2019-01-16T18:07:25.887Z,98022.92
2019-01-16T18:10:30.065Z,98036.16
2019-01-16T18:13:06.971Z,98028.14
2019-01-16T18:15:41.209Z,98024.55
2019-01-16T18:20:16.482Z,98026.67
2019-01-16T18:24:55.848Z,98025.08
2019-01-16T18:29:32.771Z,98025.77
2019-01-16T18:32:06.486Z,98016.28
2019-01-16T18:34:47.019Z,98026.30
2019-01-16T18:37:20.873Z,98018.04
2019-01-16T18:40:14.385Z,97963.25
2019-01-16T18:42:47.771Z,98018.75
2019-01-16T18:45:36.990Z,98013.92
2019-01-16T18:48:10.598Z,98009.86
2019-01-16T18:50:58.788Z,98007.81
2019-01-16T18:54:39.521Z,98011.62
2019-01-16T18:57:14.674Z,98000.47
2019-01-16T18:59:54.135Z,97993.98
2019-01-16T19:04:29.038Z,97983.29
2019-01-16T19:07:19.302Z,97966.09
2019-01-16T19:09:54.286Z,97967.86
2019-01-16T19:12:32.004Z,97951.82
2019-01-16T19:15:10.007Z,97960.22
2019-01-16T19:19:44.385Z,97954.02
2019-01-16T19:22:28.244Z,97952.80
2019-01-16T19:26:03.795Z,97958.70
2019-01-16T19:30:45.210Z,97940.05
2019-01-16T19:33:23.207Z,97934.00
2019-01-16T19:36:04.937Z,97927.91
2019-01-16T19:40:41.886Z,97930.19
2019-01-16T19:45:20.479Z,97910.93
2019-01-16T19:47:55.333Z,97915.59
2019-01-16T19:50:29.980Z,97904.05
2019-01-16T19:53:09.461Z,97773.57
2019-01-16T19:56:42.593Z,97882.67
2019-01-16T19:59:16.613Z,97870.20
2019-01-16T20:03:56.994Z,97893.79
2019-01-16T20:06:31.573Z,97894.22
2019-01-16T20:09:25.156Z,97888.03
2019-01-16T20:11:59.693Z,97883.97
2019-01-16T20:14:41.920Z,97889.22
2019-01-16T20:17:19.923Z,97784.34
2019-01-16T20:19:53.384Z,97891.20
2019-01-16T20:22:29.056Z,97811.63
2019-01-16T20:25:02.788Z,97878.75
2019-01-16T20:29:39.096Z,97882.16
2019-01-16T20:32:13.028Z,97866.98
2019-01-16T20:35:50.187Z,97871.53
2019-01-16T20:41:02.260Z,97876.85
2019-01-16T20:43:36.862Z,97888.50
2019-01-16T20:46:44.474Z,97883.73
2019-01-16T20:49:29.107Z,97798.30
2019-01-16T20:52:10.724Z,97869.86
2019-01-16T20:55:18.562Z,97863.80
2019-01-16T20:59:00.210Z,97861.91
2019-01-16T21:03:43.046Z,97864.91
2019-01-16T21:07:17.125Z,97928.64
2019-01-16T21:10:49.943Z,97869.94
2019-01-16T21:13:32.079Z,97864.68
2019-01-16T21:16:06.948Z,97855.86
2019-01-16T21:18:41.106Z,97872.58
2019-01-16T21:21:20.631Z,97873.63
2019-01-16T21:23:58.607Z,97868.03
2019-01-16T21:27:04.330Z,97861.92
2019-01-16T21:29:42.861Z,97864.13
2019-01-16T21:32:21.329Z,97859.62
2019-01-16T21:34:55.026Z,97861.08
2019-01-16T21:39:32.833Z,97861.68
2019-01-16T21:42:08.626Z,97852.91
2019-01-16T21:44:42.513Z,97860.77
2019-01-16T21:48:18.236Z,97858.87
2019-01-16T21:51:07.550Z,97836.41
2019-01-16T21:54:49.588Z,97761.69
2019-01-16T21:57:22.835Z,97833.44
2019-01-16T22:00:27.628Z,97812.03
2019-01-16T22:03:02.609Z,97807.55
2019-01-16T22:05:38.297Z,97802.78
2019-01-16T22:08:18.133Z,97811.59
2019-01-16T22:10:57.710Z,97809.28
2019-01-16T22:14:32.088Z,97814.59
2019-01-16T22:17:17.240Z,97767.03
2019-01-16T22:19:56.393Z,97807.42
2019-01-16T22:22:40.666Z,97797.73
2019-01-16T22:25:15.692Z,97804.31
2019-01-16T22:27:55.947Z,97788.36
2019-01-16T22:30:33.785Z,97786.84
2019-01-16T22:33:06.937Z,97772.00
2019-01-16T22:37:44.922Z,97795.72
2019-01-16T22:40:22.597Z,97770.91
2019-01-16T22:42:58.492Z,97760.76
2019-01-16T22:46:11.180Z,97765.10
2019-01-16T22:48:54.678Z,97754.05
2019-01-16T22:53:34.022Z,97707.65
2019-01-16T22:56:12.746Z,97758.02
2019-01-16T22:59:19.031Z,97752.39
2019-01-16T23:01:59.399Z,97749.56
2019-01-16T23:04:32.769Z,97716.31
2019-01-16T23:07:10.623Z,97735.73
2019-01-16T23:09:44.301Z,97732.59
2019-01-16T23:12:50.863Z,97726.77
2019-01-16T23:15:28.683Z,97719.81
2019-01-16T23:18:13.413Z,97717.34
2019-01-16T23:20:52.957Z,97699.90
2019-01-16T23:23:30.494Z,97720.11
2019-01-16T23:26:11.251Z,97690.04
2019-01-16T23:28:56.900Z,97691.63
2019-01-16T23:33:35.486Z,97661.95
2019-01-16T23:37:14.019Z,97690.87
2019-01-16T23:41:51.928Z,97696.45
2019-01-16T23:44:27.209Z,97702.80
2019-01-16T23:47:15.385Z,97691.95
2019-01-16T23:49:51.250Z,97703.70
2019-01-16T23:52:26.319Z,97632.17
2019-01-16T23:55:04.771Z,97703.43
2019-01-16T23:57:41.845Z,97689.37
